createdAt,value
2018-12-10T00:00:38.036Z,3.33
2018-12-10T00:03:12.004Z,3.30
2018-12-10T00:05:40.940Z,3.30
2018-12-10T00:08:09.614Z,3.47
2018-12-10T00:10:41.733Z,3.80
2018-12-10T00:13:09.145Z,3.30
2018-12-10T00:15:37.964Z,3.73
2018-12-10T00:18:06.582Z,3.77
2018-12-10T00:20:35.301Z,3.87
2018-12-10T00:23:04.098Z,4.10
2018-12-10T00:25:33.230Z,4.33
2018-12-10T00:28:02.354Z,4.10
2018-12-10T00:30:31.563Z,3.80
2018-12-10T00:33:00.207Z,4.17
2018-12-10T00:35:28.968Z,3.67
2018-12-10T00:37:57.598Z,3.50
2018-12-10T00:40:26.233Z,3.90
2018-12-10T00:42:55.178Z,3.90
2018-12-10T00:45:24.219Z,3.93
2018-12-10T00:47:52.988Z,3.67
2018-12-10T00:50:21.689Z,3.50
2018-12-10T00:52:50.477Z,2.97
2018-12-10T00:55:19.253Z,3.60
2018-12-10T00:57:48.253Z,3.20
2018-12-10T01:00:17.068Z,3.37
2018-12-10T01:02:46.118Z,3.73
2018-12-10T01:05:15.230Z,3.70
2018-12-10T01:07:44.157Z,3.40
2018-12-10T01:10:12.891Z,3.77
2018-12-10T01:12:41.678Z,3.30
2018-12-10T01:15:10.631Z,4.20
2018-12-10T01:17:39.637Z,3.93
2018-12-10T01:20:08.574Z,3.63
2018-12-10T01:22:37.615Z,4.07
2018-12-10T01:25:06.615Z,3.93
2018-12-10T01:27:35.371Z,3.40
2018-12-10T01:30:04.200Z,3.50
2018-12-10T01:32:33.009Z,4.17
2018-12-10T01:35:01.973Z,3.87
2018-12-10T01:37:31.028Z,3.97
2018-12-10T01:39:59.995Z,4.23
2018-12-10T01:42:28.950Z,4.20
2018-12-10T01:44:57.960Z,4.00
2018-12-10T01:47:26.614Z,4.00
2018-12-10T01:49:55.436Z,4.07
2018-12-10T01:52:24.072Z,3.73
2018-12-10T01:54:52.760Z,3.50
2018-12-10T01:57:21.400Z,3.47
2018-12-10T01:59:50.145Z,3.27
2018-12-10T02:02:18.800Z,3.13
2018-12-10T02:04:47.413Z,3.37
2018-12-10T02:07:16.116Z,3.07
2018-12-10T02:09:44.821Z,3.30
2018-12-10T02:12:13.412Z,3.20
2018-12-10T02:14:42.224Z,3.73
2018-12-10T02:17:10.893Z,3.70
2018-12-10T02:19:41.403Z,3.37
2018-12-10T02:22:10.294Z,3.87
2018-12-10T02:24:39.074Z,4.23
2018-12-10T02:27:07.863Z,4.57
2018-12-10T02:29:36.574Z,4.20
2018-12-10T02:32:05.776Z,4.53
2018-12-10T02:34:34.382Z,4.50
2018-12-10T02:37:03.159Z,4.57
2018-12-10T02:39:31.896Z,4.67
2018-12-10T02:42:00.560Z,5.23
2018-12-10T02:44:29.354Z,4.87
2018-12-10T02:46:57.960Z,5.30
2018-12-10T02:49:26.691Z,5.50
2018-12-10T02:51:55.330Z,4.70
2018-12-10T02:54:24.073Z,4.80
2018-12-10T02:56:52.860Z,5.00
2018-12-10T02:59:21.659Z,4.80
2018-12-10T03:01:50.388Z,4.30
2018-12-10T03:04:19.120Z,4.33
2018-12-10T03:06:47.889Z,5.00
2018-12-10T03:09:16.921Z,5.20
2018-12-10T03:11:45.712Z,4.40
2018-12-10T03:14:14.798Z,4.50
2018-12-10T03:16:44.542Z,4.63
2018-12-10T03:19:13.632Z,4.80
2018-12-10T03:21:42.812Z,4.80
2018-12-10T03:24:11.672Z,5.07
2018-12-10T03:26:40.610Z,4.93
2018-12-10T03:29:09.240Z,4.80
2018-12-10T03:31:38.009Z,4.90
2018-12-10T03:34:06.689Z,5.80
2018-12-10T03:36:36.514Z,5.33
2018-12-10T03:39:06.634Z,5.20
2018-12-10T03:41:35.522Z,5.63
2018-12-10T03:44:04.624Z,5.83
2018-12-10T03:46:33.625Z,5.40
2018-12-10T03:49:02.669Z,5.33
2018-12-10T03:51:31.847Z,5.73
2018-12-10T03:54:00.778Z,6.70
2018-12-10T03:56:29.456Z,6.40
2018-12-10T03:58:58.376Z,6.40
2018-12-10T04:01:27.315Z,6.00
2018-12-10T04:03:56.669Z,6.73
2018-12-10T04:06:25.386Z,6.60
2018-12-10T04:08:54.270Z,6.37
2018-12-10T04:11:23.025Z,7.33
2018-12-10T04:13:52.102Z,6.90
2018-12-10T04:16:20.927Z,6.50
2018-12-10T04:18:49.752Z,6.90
2018-12-10T04:21:18.780Z,7.00
2018-12-10T04:23:47.547Z,7.37
2018-12-10T04:26:16.495Z,6.93
2018-12-10T04:28:45.233Z,7.27
2018-12-10T04:31:13.956Z,7.83
2018-12-10T04:33:42.673Z,7.40
2018-12-10T04:36:11.740Z,8.17
2018-12-10T04:38:40.619Z,6.93
2018-12-10T04:41:09.179Z,7.30
2018-12-10T04:43:38.194Z,7.97
2018-12-10T04:46:06.971Z,7.93
2018-12-10T04:48:35.861Z,8.00
2018-12-10T04:51:04.746Z,8.07
2018-12-10T04:53:33.546Z,9.23
2018-12-10T04:56:02.277Z,8.43
2018-12-10T04:58:31.224Z,8.53
2018-12-10T05:00:59.965Z,8.90
2018-12-10T05:03:28.925Z,8.43
2018-12-10T05:05:58.020Z,9.37
2018-12-10T05:08:26.706Z,8.43
2018-12-10T05:10:55.480Z,9.10
2018-12-10T05:13:24.096Z,8.70
2018-12-10T05:15:52.831Z,13.13
2018-12-10T05:18:21.826Z,9.43
2018-12-10T05:20:50.699Z,12.23
2018-12-10T05:23:19.536Z,11.30
2018-12-10T05:25:48.208Z,11.93
2018-12-10T05:28:16.973Z,10.53
2018-12-10T05:30:45.762Z,10.37
2018-12-10T05:33:14.636Z,9.80
2018-12-10T05:35:43.531Z,10.97
2018-12-10T05:38:12.619Z,10.43
2018-12-10T05:40:42.120Z,10.70
2018-12-10T05:43:10.724Z,11.77
2018-12-10T05:45:39.684Z,12.00
2018-12-10T05:48:08.393Z,11.17
2018-12-10T05:50:37.342Z,10.17
2018-12-10T05:53:05.567Z,10.30
2018-12-10T05:55:34.480Z,10.60
2018-12-10T05:58:03.213Z,11.33
2018-12-10T06:00:32.022Z,11.23
2018-12-10T06:03:01.006Z,9.77
2018-12-10T06:05:29.673Z,10.57
2018-12-10T06:07:58.282Z,11.00
2018-12-10T06:10:27.071Z,10.17
2018-12-10T06:12:55.829Z,10.87
2018-12-10T06:15:24.551Z,10.03
2018-12-10T06:17:53.406Z,10.73
2018-12-10T06:20:22.359Z,11.40
2018-12-10T06:22:51.130Z,10.80
2018-12-10T06:25:19.777Z,10.57
2018-12-10T06:27:48.822Z,11.30
2018-12-10T06:30:17.607Z,12.67
2018-12-10T06:32:46.687Z,11.43
2018-12-10T06:35:15.795Z,11.30
2018-12-10T06:37:44.735Z,11.63
2018-12-10T06:40:13.834Z,11.23
2018-12-10T06:42:43.283Z,11.70
2018-12-10T06:45:12.051Z,11.83
2018-12-10T06:47:40.758Z,12.67
2018-12-10T06:50:09.979Z,12.00
2018-12-10T06:52:39.077Z,12.33
2018-12-10T06:55:08.178Z,11.63
2018-12-10T06:57:37.215Z,13.00
2018-12-10T07:00:07.668Z,12.53
2018-12-10T07:02:36.674Z,12.50
2018-12-10T07:05:06.055Z,13.07
2018-12-10T07:07:35.090Z,11.73
2018-12-10T07:10:04.362Z,12.87
2018-12-10T07:12:33.755Z,12.57
2018-12-10T07:15:02.793Z,11.93
2018-12-10T07:17:31.851Z,11.90
2018-12-10T07:20:00.509Z,13.40
2018-12-10T07:22:29.427Z,11.53
2018-12-10T07:24:58.188Z,11.90
2018-12-10T07:27:26.873Z,11.13
2018-12-10T07:29:55.835Z,11.03
2018-12-10T07:32:24.838Z,11.03
2018-12-10T07:34:53.915Z,10.13
2018-12-10T07:37:22.572Z,10.37
2018-12-10T07:39:51.618Z,10.07
2018-12-10T07:42:20.588Z,10.53
2018-12-10T07:44:49.297Z,9.87
2018-12-10T07:47:18.443Z,9.87
2018-12-10T07:49:47.235Z,9.80
2018-12-10T07:52:16.100Z,9.43
2018-12-10T07:54:45.163Z,9.77
2018-12-10T07:57:13.991Z,9.43
2018-12-10T07:59:42.780Z,9.17
2018-12-10T08:02:11.705Z,8.90
2018-12-10T08:04:40.778Z,8.87
2018-12-10T08:07:09.697Z,9.00
2018-12-10T08:09:38.376Z,9.10
2018-12-10T08:12:07.234Z,8.50
2018-12-10T08:14:36.496Z,8.10
2018-12-10T08:17:05.473Z,8.33
2018-12-10T08:19:34.295Z,7.73
2018-12-10T08:22:03.087Z,7.73
2018-12-10T08:24:32.269Z,7.87
2018-12-10T08:27:01.211Z,7.40
2018-12-10T08:29:30.174Z,8.27
2018-12-10T08:31:59.269Z,8.07
2018-12-10T08:34:28.281Z,7.60
2018-12-10T08:36:57.062Z,7.93
2018-12-10T08:39:26.006Z,8.03
2018-12-10T08:41:54.953Z,7.40
2018-12-10T08:44:23.901Z,7.17
2018-12-10T08:46:52.980Z,7.30
2018-12-10T08:49:22.011Z,7.10
2018-12-10T08:51:50.908Z,7.60
2018-12-10T08:54:19.750Z,7.50
2018-12-10T08:56:48.553Z,7.63
2018-12-10T08:59:17.648Z,7.07
2018-12-10T09:01:47.087Z,7.07
2018-12-10T09:04:16.235Z,7.13
2018-12-10T09:06:45.075Z,7.10
2018-12-10T09:09:14.080Z,7.00
2018-12-10T09:11:42.995Z,6.73
2018-12-10T09:14:11.890Z,6.77
2018-12-10T09:16:40.753Z,7.33
2018-12-10T09:19:09.774Z,7.30
2018-12-10T09:21:38.435Z,7.53
2018-12-10T09:24:07.602Z,6.27
2018-12-10T09:26:36.523Z,6.73
2018-12-10T09:29:05.205Z,6.57
2018-12-10T09:31:34.012Z,6.40
2018-12-10T09:34:02.910Z,6.97
2018-12-10T09:36:31.805Z,6.23
2018-12-10T09:39:00.981Z,6.17
2018-12-10T09:41:29.879Z,6.10
2018-12-10T09:43:59.034Z,6.10
2018-12-10T09:46:27.858Z,5.50
2018-12-10T09:48:56.816Z,5.30
2018-12-10T09:51:25.755Z,5.40
2018-12-10T09:53:54.436Z,6.07
2018-12-10T09:56:23.330Z,6.63
2018-12-10T09:58:52.286Z,6.20
2018-12-10T10:01:21.324Z,6.70
2018-12-10T10:03:50.014Z,6.53
2018-12-10T10:06:18.835Z,5.73
2018-12-10T10:08:49.644Z,6.93
2018-12-10T10:11:19.001Z,6.63
2018-12-10T10:13:48.059Z,6.07
2018-12-10T10:16:17.200Z,5.90
2018-12-10T10:18:45.973Z,5.53
2018-12-10T10:21:14.982Z,5.40
2018-12-10T10:23:43.604Z,5.80
2018-12-10T10:26:12.753Z,5.80
2018-12-10T10:28:41.470Z,5.40
2018-12-10T10:31:10.364Z,6.00
2018-12-10T10:33:39.608Z,5.63
2018-12-10T10:36:08.560Z,5.47
2018-12-10T10:38:37.256Z,5.30
2018-12-10T10:41:06.012Z,5.10
2018-12-10T10:43:34.684Z,4.97
2018-12-10T10:46:03.489Z,5.43
2018-12-10T10:48:32.070Z,4.53
2018-12-10T10:51:00.667Z,4.97
2018-12-10T10:53:29.529Z,5.50
2018-12-10T10:55:58.135Z,4.40
2018-12-10T10:58:26.767Z,4.63
2018-12-10T11:01:00.561Z,4.67
2018-12-10T11:03:34.680Z,4.77
2018-12-10T11:06:03.533Z,4.43
2018-12-10T11:08:32.114Z,4.37
2018-12-10T11:11:00.797Z,5.10
2018-12-10T11:13:29.536Z,3.90
2018-12-10T11:15:58.633Z,4.80
2018-12-10T11:18:27.326Z,4.20
2018-12-10T11:20:56.460Z,4.73
2018-12-10T11:23:26.304Z,4.50
2018-12-10T11:25:55.368Z,4.10
2018-12-10T11:28:24.258Z,4.30
2018-12-10T11:30:53.043Z,4.17
2018-12-10T11:33:22.400Z,4.23
2018-12-10T11:35:51.135Z,4.13
2018-12-10T11:38:20.307Z,4.53
2018-12-10T11:40:49.533Z,4.23
2018-12-10T11:43:18.280Z,4.47
2018-12-10T11:45:47.385Z,4.90
2018-12-10T11:48:16.076Z,4.40
2018-12-10T11:50:44.844Z,4.67
2018-12-10T11:53:13.758Z,4.90
2018-12-10T11:55:42.656Z,5.23
2018-12-10T11:58:11.640Z,5.23
2018-12-10T12:00:40.930Z,6.93
2018-12-10T12:03:09.816Z,5.20
2018-12-10T12:05:38.610Z,5.03
2018-12-10T12:08:07.775Z,5.10
2018-12-10T12:10:36.743Z,5.57
2018-12-10T12:13:05.777Z,5.27
2018-12-10T12:15:34.929Z,5.90
2018-12-10T12:18:04.017Z,5.20
2018-12-10T12:20:32.868Z,5.87
2018-12-10T12:23:01.724Z,5.90
2018-12-10T12:25:30.614Z,6.10
2018-12-10T12:27:59.479Z,6.07
2018-12-10T12:30:28.553Z,4.87
2018-12-10T12:32:57.565Z,5.60
2018-12-10T12:35:26.431Z,5.53
2018-12-10T12:37:55.079Z,4.80
2018-12-10T12:40:23.915Z,4.53
2018-12-10T12:42:52.802Z,5.27
2018-12-10T12:45:21.660Z,4.80
2018-12-10T12:47:50.494Z,5.20
2018-12-10T12:50:19.758Z,4.63
2018-12-10T12:52:48.725Z,4.67
2018-12-10T12:55:17.783Z,5.00
2018-12-10T12:57:46.508Z,4.80
2018-12-10T13:00:15.724Z,4.70
2018-12-10T13:02:44.429Z,4.73
2018-12-10T13:05:13.480Z,5.57
2018-12-10T13:07:42.512Z,4.67
2018-12-10T13:10:12.011Z,4.40
2018-12-10T13:12:40.846Z,4.63
2018-12-10T13:15:09.807Z,4.53
2018-12-10T13:17:38.462Z,3.50
2018-12-10T13:20:14.024Z,2.90
2018-12-10T13:22:47.283Z,2.17
2018-12-10T13:25:13.829Z,2.33
2018-12-10T13:27:42.668Z,2.23
2018-12-10T13:30:11.567Z,1.73
2018-12-10T13:32:40.247Z,1.90
2018-12-10T13:35:09.636Z,1.80
2018-12-10T13:37:38.706Z,1.47
2018-12-10T13:40:07.878Z,1.50
2018-12-10T13:42:37.185Z,1.60
2018-12-10T13:45:06.422Z,1.40
2018-12-10T13:47:35.378Z,1.50
2018-12-10T13:50:04.639Z,2.00
2018-12-10T13:52:33.495Z,1.60
2018-12-10T13:55:02.862Z,1.43
2018-12-10T13:57:31.818Z,2.00
2018-12-10T14:00:01.250Z,1.87
2018-12-10T14:02:30.552Z,2.03
2018-12-10T14:05:05.105Z,1.93
2018-12-10T14:07:34.275Z,2.10
2018-12-10T14:10:02.957Z,2.20
2018-12-10T14:12:31.999Z,2.00
2018-12-10T14:15:00.789Z,2.10
2018-12-10T14:17:29.889Z,2.10
2018-12-10T14:19:58.754Z,2.30
2018-12-10T14:22:33.950Z,2.30
2018-12-10T14:25:03.478Z,2.30
2018-12-10T14:27:32.354Z,2.30
2018-12-10T14:30:01.364Z,2.20
2018-12-10T14:32:30.349Z,2.23
2018-12-10T14:34:59.553Z,2.40
2018-12-10T14:37:28.299Z,2.00
2018-12-10T14:39:56.987Z,2.13
2018-12-10T14:42:26.097Z,2.07
2018-12-10T14:44:55.071Z,2.00
2018-12-10T14:47:24.053Z,1.70
2018-12-10T14:52:35.844Z,2.40
2018-12-10T14:55:04.886Z,2.63
2018-12-10T14:57:33.979Z,2.37
2018-12-10T15:00:03.016Z,2.23
2018-12-10T15:02:32.117Z,2.63
2018-12-10T15:05:00.939Z,2.80
2018-12-10T15:07:30.170Z,3.17
2018-12-10T15:09:59.053Z,3.03
2018-12-10T15:12:28.071Z,3.30
2018-12-10T15:14:57.088Z,3.20
2018-12-10T15:17:25.995Z,3.47
2018-12-10T15:19:54.731Z,4.00
2018-12-10T15:22:23.621Z,3.67
2018-12-10T15:24:52.457Z,3.70
2018-12-10T15:27:21.308Z,4.20
2018-12-10T15:29:50.019Z,4.20
2018-12-10T15:32:18.956Z,4.40
2018-12-10T15:34:47.946Z,4.93
2018-12-10T15:37:16.864Z,5.40
2018-12-10T15:39:45.619Z,5.97
2018-12-10T15:42:14.348Z,6.60
2018-12-10T15:44:43.235Z,6.07
2018-12-10T15:47:11.995Z,6.80
2018-12-10T15:49:40.879Z,6.73
2018-12-10T15:52:10.120Z,7.57
2018-12-10T15:54:38.745Z,7.27
2018-12-10T15:57:07.501Z,7.50
2018-12-10T15:59:36.315Z,7.67
2018-12-10T16:02:05.072Z,7.40
2018-12-10T16:04:35.659Z,8.17
2018-12-10T16:07:04.486Z,7.67
2018-12-10T16:09:33.411Z,7.77
2018-12-10T16:12:02.298Z,7.53
2018-12-10T16:14:31.355Z,8.77
2018-12-10T16:17:00.178Z,7.50
2018-12-10T16:19:29.002Z,7.53
2018-12-10T16:21:57.775Z,7.10
2018-12-10T16:24:26.593Z,7.03
2018-12-10T16:26:55.397Z,7.43
2018-12-10T16:29:24.447Z,7.90
2018-12-10T16:31:53.357Z,7.27
2018-12-10T16:34:22.386Z,6.30
2018-12-10T16:36:51.482Z,6.50
2018-12-10T16:39:20.219Z,5.53
2018-12-10T16:41:49.101Z,6.00
2018-12-10T16:44:18.123Z,6.13
2018-12-10T16:46:46.894Z,6.47
2018-12-10T16:49:15.731Z,5.60
2018-12-10T16:51:44.865Z,5.63
2018-12-10T16:54:14.201Z,5.33
2018-12-10T16:56:43.259Z,6.00
2018-12-10T16:59:12.246Z,6.20
2018-12-10T17:01:41.247Z,6.27
2018-12-10T17:04:10.361Z,6.20
2018-12-10T17:06:39.482Z,5.43
2018-12-10T17:09:11.730Z,6.13
2018-12-10T17:11:40.942Z,5.63
2018-12-10T17:14:09.913Z,5.73
2018-12-10T17:16:38.859Z,5.47
2018-12-10T17:19:38.443Z,5.63
2018-12-10T17:22:07.390Z,5.90
2018-12-10T17:24:36.169Z,5.53
2018-12-10T17:27:05.060Z,5.20
2018-12-10T17:29:33.865Z,5.23
2018-12-10T17:32:03.922Z,4.53
2018-12-10T17:34:32.611Z,4.97
2018-12-10T17:39:02.014Z,4.50
2018-12-10T17:41:30.848Z,4.57
2018-12-10T17:44:00.355Z,4.50
2018-12-10T17:46:29.698Z,4.90
2018-12-10T17:48:58.584Z,4.63
2018-12-10T17:51:27.306Z,5.00
2018-12-10T17:53:57.002Z,4.47
2018-12-10T17:56:26.221Z,3.50
2018-12-10T17:58:55.008Z,3.57
2018-12-10T18:01:23.864Z,3.00
2018-12-10T18:03:52.986Z,2.70
2018-12-10T18:06:21.681Z,2.30
2018-12-10T18:08:51.140Z,1.70
2018-12-10T18:11:20.084Z,1.70
2018-12-10T18:13:49.014Z,1.40
2018-12-10T18:16:17.989Z,1.40
2018-12-10T18:18:47.166Z,1.53
2018-12-10T18:21:16.060Z,1.30
2018-12-10T18:23:45.132Z,1.10
2018-12-10T18:26:13.946Z,1.30
2018-12-10T18:28:42.734Z,1.77
2018-12-10T18:31:11.945Z,1.40
2018-12-10T18:33:41.334Z,1.27
2018-12-10T18:36:10.272Z,1.33
2018-12-10T18:38:39.054Z,1.30
2018-12-10T18:41:08.032Z,1.07
2018-12-10T18:43:36.892Z,1.40
2018-12-10T18:46:05.981Z,0.93
2018-12-10T18:48:34.992Z,1.10
2018-12-10T18:51:04.057Z,1.67
2018-12-10T18:53:33.286Z,1.30
2018-12-10T18:56:02.253Z,1.30
2018-12-10T18:58:31.075Z,1.37
2018-12-10T19:01:00.055Z,1.30
2018-12-10T19:03:28.881Z,1.40
2018-12-10T19:05:57.671Z,1.57
2018-12-10T19:08:27.237Z,1.30
2018-12-10T19:10:56.311Z,1.40
2018-12-10T19:13:25.432Z,1.30
2018-12-10T19:15:54.403Z,1.50
2018-12-10T19:18:23.705Z,1.60
2018-12-10T19:20:52.407Z,1.43
2018-12-10T19:23:21.218Z,1.30
2018-12-10T19:25:50.619Z,1.70
2018-12-10T19:28:19.715Z,1.87
2018-12-10T19:30:49.071Z,1.73
2018-12-10T19:33:18.081Z,1.60
2018-12-10T19:35:46.869Z,1.60
2018-12-10T19:38:15.771Z,1.70
2018-12-10T19:40:44.993Z,1.77
2018-12-10T19:43:14.066Z,1.47
2018-12-10T19:45:42.970Z,1.80
2018-12-10T19:48:11.736Z,1.50
2018-12-10T19:50:40.460Z,1.43
2018-12-10T19:53:09.232Z,1.90
2018-12-10T19:55:38.349Z,2.03
2018-12-10T19:58:07.656Z,1.30
2018-12-10T20:00:37.179Z,1.80
2018-12-10T20:03:06.373Z,1.80
2018-12-10T20:05:40.496Z,1.73
2018-12-10T20:08:09.487Z,1.93
2018-12-10T20:10:38.258Z,1.80
2018-12-10T20:13:07.066Z,1.93
2018-12-10T20:15:36.311Z,1.83
2018-12-10T20:18:05.358Z,2.20
2018-12-10T20:20:34.310Z,2.30
2018-12-10T20:23:03.478Z,2.07
2018-12-10T20:25:32.387Z,1.70
2018-12-10T20:28:01.116Z,2.00
2018-12-10T20:30:29.949Z,2.40
2018-12-10T20:32:58.790Z,1.80
2018-12-10T20:35:27.983Z,1.90
2018-12-10T20:37:57.335Z,2.30
2018-12-10T20:40:26.233Z,2.00
2018-12-10T20:42:55.163Z,2.20
2018-12-10T20:45:24.068Z,2.07
2018-12-10T20:47:53.135Z,2.40
2018-12-10T20:50:22.079Z,2.40
2018-12-10T20:52:51.027Z,2.30
2018-12-10T20:55:20.141Z,2.13
2018-12-10T20:57:48.844Z,2.50
2018-12-10T21:00:17.688Z,2.57
2018-12-10T21:02:46.345Z,2.53
2018-12-10T21:05:15.224Z,2.27
2018-12-10T21:07:44.233Z,2.23
2018-12-10T21:10:12.948Z,2.17
2018-12-10T21:12:42.047Z,2.80
2018-12-10T21:15:11.493Z,2.87
2018-12-10T21:17:40.408Z,2.77
2018-12-10T21:20:10.044Z,2.37
2018-12-10T21:22:39.091Z,2.77
2018-12-10T21:25:08.030Z,2.87
2018-12-10T21:27:36.801Z,2.70
2018-12-10T21:30:06.662Z,2.80
2018-12-10T21:32:35.547Z,2.97
2018-12-10T21:35:04.704Z,3.10
2018-12-10T21:37:33.724Z,3.20
2018-12-10T21:40:02.587Z,3.23
2018-12-10T21:42:31.508Z,2.83
2018-12-10T21:45:00.606Z,2.93
2018-12-10T21:47:29.618Z,3.13
2018-12-10T21:49:58.363Z,3.13
2018-12-10T21:52:27.694Z,2.90
2018-12-10T21:54:57.025Z,3.03
2018-12-10T21:57:25.938Z,2.93
2018-12-10T21:59:54.802Z,2.50
2018-12-10T22:02:23.540Z,3.10
2018-12-10T22:04:52.473Z,2.77
2018-12-10T22:07:21.094Z,3.30
2018-12-10T22:09:49.926Z,3.07
2018-12-10T22:12:18.783Z,3.23
2018-12-10T22:14:47.840Z,2.93
2018-12-10T22:17:16.695Z,2.77
2018-12-10T22:19:45.308Z,2.90
2018-12-10T22:22:14.011Z,2.30
2018-12-10T22:24:42.633Z,2.60
2018-12-10T22:27:11.311Z,2.93
2018-12-10T22:29:39.934Z,2.83
2018-12-10T22:32:08.686Z,2.73
2018-12-10T22:34:37.444Z,3.10
2018-12-10T22:37:06.311Z,2.83
2018-12-10T22:39:35.408Z,2.90
2018-12-10T22:42:04.184Z,2.83
2018-12-10T22:44:33.219Z,3.13
2018-12-10T22:47:01.961Z,2.50
2018-12-10T22:49:30.887Z,3.13
2018-12-10T22:51:59.876Z,2.83
2018-12-10T22:54:28.862Z,2.80
2018-12-10T22:56:57.485Z,2.80
2018-12-10T22:59:26.427Z,2.97
2018-12-10T23:01:55.252Z,2.67
2018-12-10T23:04:23.978Z,2.53
2018-12-10T23:06:53.351Z,3.00
2018-12-10T23:09:53.135Z,2.53
2018-12-10T23:12:21.923Z,2.63
2018-12-10T23:14:50.754Z,3.00
2018-12-10T23:17:19.516Z,2.67
2018-12-10T23:19:48.609Z,3.10
2018-12-10T23:22:17.469Z,2.47
2018-12-10T23:24:46.385Z,2.60
2018-12-10T23:27:15.357Z,2.50
2018-12-10T23:29:44.054Z,2.80
2018-12-10T23:32:12.974Z,2.80
2018-12-10T23:34:41.847Z,2.53
2018-12-10T23:37:10.866Z,2.53
2018-12-10T23:39:39.791Z,2.70
2018-12-10T23:42:08.846Z,2.70
2018-12-10T23:44:42.920Z,2.77
2018-12-10T23:47:11.631Z,2.60
2018-12-10T23:49:40.270Z,2.60
2018-12-10T23:52:08.989Z,2.57
2018-12-10T23:54:37.592Z,2.77
2018-12-10T23:57:06.293Z,2.77
2018-12-10T23:59:35.142Z,2.47
